Time,TemperatureF,DewpointF,PressureIn,WindDirection,WindDirectionDegrees,WindSpeedMPH,WindSpeedGustMPH,Humidity,HourlyPrecipIn,Conditions,Clouds,dailyrainin,SolarRadiationWatts/m^2,SoftwareType,DateUTC
2013-07-10 00:02:00,76.0,73.0,-100.00,SW,216,0.0,0.0,89,0.00,,,0.00,0.000000,,2013-07-10 05:02:00,
2013-07-10 00:32:00,76.0,72.0,-100.00,SW,219,2.0,4.0,87,0.00,,,0.00,0.000000,,2013-07-10 05:32:00,
2013-07-10 00:42:00,76.0,72.0,-100.00,SW,219,2.0,4.0,87,0.00,,,0.00,0.000000,,2013-07-10 05:42:00,
2013-07-10 00:53:00,76.0,72.0,-100.00,SW,219,2.0,4.0,87,0.00,,,0.00,0.000000,,2013-07-10 05:53:00,
2013-07-10 01:01:00,76.0,72.0,-100.00,SW,219,2.0,4.0,87,0.00,,,0.00,0.000000,,2013-07-10 06:01:00,
2013-07-10 01:33:00,76.0,73.0,-100.00,SSW,208,0.0,9.0,89,0.00,,,0.00,0.000000,,2013-07-10 06:33:00,
2013-07-10 01:42:00,76.0,73.0,-100.00,SSW,208,0.0,9.0,89,0.00,,,0.00,0.000000,,2013-07-10 06:42:00,
2013-07-10 01:52:00,76.0,73.0,-100.00,SSW,208,0.0,9.0,89,0.00,,,0.00,0.000000,,2013-07-10 06:52:00,
2013-07-10 02:01:00,76.0,73.0,-100.00,SSW,208,0.0,9.0,89,0.00,,,0.00,0.000000,,2013-07-10 07:01:00,
2013-07-10 02:33:00,75.0,72.0,-100.00,SSW,208,1.0,5.0,91,0.00,,,0.00,0.000000,,2013-07-10 07:33:00,
2013-07-10 02:43:00,75.0,72.0,-100.00,SSW,208,1.0,5.0,91,0.00,,,0.00,0.000000,,2013-07-10 07:43:00,
2013-07-10 02:53:00,75.0,72.0,-100.00,SSW,208,1.0,5.0,91,0.00,,,0.00,0.000000,,2013-07-10 07:53:00,
2013-07-10 03:01:00,75.0,72.0,-100.00,SSW,208,1.0,5.0,91,0.00,,,0.00,0.000000,,2013-07-10 08:01:00,
2013-07-10 03:33:00,75.0,73.0,-100.00,SW,223,2.0,5.0,92,0.00,,,0.00,0.000000,,2013-07-10 08:33:00,
2013-07-10 03:42:00,75.0,73.0,-100.00,SW,223,2.0,5.0,92,0.00,,,0.00,0.000000,,2013-07-10 08:42:00,
2013-07-10 03:53:00,75.0,73.0,-100.00,SW,223,2.0,5.0,92,0.00,,,0.00,0.000000,,2013-07-10 08:53:00,
2013-07-10 04:02:00,75.0,73.0,-100.00,SW,223,2.0,5.0,92,0.00,,,0.00,0.000000,,2013-07-10 09:02:00,
2013-07-10 04:33:00,76.0,73.0,-100.00,SW,224,3.0,7.0,91,0.00,,,0.00,0.000000,,2013-07-10 09:33:00,
2013-07-10 04:43:00,76.0,73.0,-100.00,SW,224,3.0,7.0,91,0.00,,,0.00,0.000000,,2013-07-10 09:43:00,
2013-07-10 04:53:00,76.0,73.0,-100.00,SW,224,3.0,7.0,91,0.00,,,0.00,0.000000,,2013-07-10 09:53:00,
2013-07-10 05:01:00,76.0,73.0,-100.00,SW,224,3.0,7.0,91,0.00,,,0.00,0.000000,,2013-07-10 10:01:00,
2013-07-10 05:32:00,76.0,73.0,-100.00,SW,230,3.0,7.0,91,0.00,,,0.00,0.000000,,2013-07-10 10:32:00,
2013-07-10 05:51:00,-999.0,-99.9,-100.00,SW,230,3.0,7.0,-999,-99.99,,,-99.99,0.000000,,2013-07-10 10:51:00,
2013-07-10 06:00:00,-999.0,-99.9,-100.00,SW,230,3.0,7.0,-999,-99.99,,,-99.99,0.000000,,2013-07-10 11:00:00,
2013-07-10 08:52:00,79.0,74.0,-100.00,WSW,255,2.0,7.0,86,-99.99,,,0.00,134.000000,,2013-07-10 13:52:00,
2013-07-10 09:01:00,79.0,74.0,-100.00,WSW,255,2.0,7.0,86,-99.99,,,0.00,134.000000,,2013-07-10 14:01:00,
2013-07-10 09:33:00,82.0,76.0,-100.00,West,276,2.0,6.0,81,0.00,,,0.00,202.000000,,2013-07-10 14:33:00,
2013-07-10 09:43:00,82.0,76.0,-100.00,West,276,2.0,6.0,81,0.00,,,0.00,202.000000,,2013-07-10 14:43:00,
2013-07-10 09:53:00,82.0,76.0,-100.00,West,276,2.0,6.0,81,0.00,,,0.00,202.000000,,2013-07-10 14:53:00,
2013-07-10 10:01:00,82.0,76.0,-100.00,West,276,2.0,6.0,81,0.00,,,0.00,202.000000,,2013-07-10 15:01:00,
2013-07-10 10:34:00,87.0,75.0,-100.00,NW,324,3.0,6.0,68,0.00,,,0.00,350.000000,,2013-07-10 15:34:00,
2013-07-10 10:43:00,87.0,75.0,-100.00,NW,324,3.0,6.0,68,0.00,,,0.00,350.000000,,2013-07-10 15:43:00,
2013-07-10 10:52:00,87.0,75.0,-100.00,NW,324,3.0,6.0,68,0.00,,,0.00,350.000000,,2013-07-10 15:52:00,
2013-07-10 11:01:00,87.0,75.0,-100.00,NW,324,3.0,6.0,68,0.00,,,0.00,350.000000,,2013-07-10 16:01:00,
2013-07-10 11:33:00,88.0,74.0,-100.00,SW,233,2.0,6.0,64,0.00,,,0.00,493.000000,,2013-07-10 16:33:00,
2013-07-10 11:44:00,88.0,74.0,-100.00,SW,233,2.0,6.0,64,0.00,,,0.00,493.000000,,2013-07-10 16:44:00,
2013-07-10 11:53:00,88.0,74.0,-100.00,SW,233,2.0,6.0,64,0.00,,,0.00,493.000000,,2013-07-10 16:53:00,
2013-07-10 12:02:00,88.0,74.0,-100.00,SW,233,2.0,6.0,64,0.00,,,0.00,493.000000,,2013-07-10 17:02:00,
2013-07-10 12:32:00,90.0,76.0,-100.00,WNW,293,2.0,6.0,63,0.00,,,0.00,533.000000,,2013-07-10 17:32:00,
2013-07-10 12:43:00,90.0,76.0,-100.00,WNW,293,2.0,6.0,63,0.00,,,0.00,533.000000,,2013-07-10 17:43:00,
2013-07-10 12:53:00,90.0,76.0,-100.00,WNW,293,2.0,6.0,63,0.00,,,0.00,533.000000,,2013-07-10 17:53:00,
2013-07-10 13:02:00,90.0,76.0,-100.00,WNW,293,2.0,6.0,63,0.00,,,0.00,533.000000,,2013-07-10 18:02:00,
2013-07-10 13:32:00,91.0,75.0,-100.00,West,277,2.0,7.0,60,0.00,,,0.00,604.000000,,2013-07-10 18:32:00,
2013-07-10 13:44:00,91.0,75.0,-100.00,West,277,2.0,7.0,60,0.00,,,0.00,604.000000,,2013-07-10 18:44:00,
2013-07-10 13:53:00,91.0,75.0,-100.00,West,277,2.0,7.0,60,0.00,,,0.00,604.000000,,2013-07-10 18:53:00,
2013-07-10 14:01:00,91.0,75.0,-100.00,West,277,2.0,7.0,60,0.00,,,0.00,604.000000,,2013-07-10 19:01:00,
2013-07-10 14:32:00,93.0,74.0,-100.00,West,265,4.0,10.0,55,0.00,,,0.00,651.000000,,2013-07-10 19:32:00,
2013-07-10 14:53:00,93.0,74.0,-100.00,West,265,4.0,10.0,55,0.00,,,0.00,651.000000,,2013-07-10 19:53:00,
2013-07-10 15:01:00,93.0,74.0,-100.00,West,265,4.0,10.0,55,0.00,,,0.00,651.000000,,2013-07-10 20:01:00,
2013-07-10 15:32:00,92.0,75.0,-100.00,WNW,299,3.0,8.0,57,0.00,,,0.00,510.000000,,2013-07-10 20:32:00,
2013-07-10 15:43:00,92.0,75.0,-100.00,WNW,299,3.0,8.0,57,0.00,,,0.00,510.000000,,2013-07-10 20:43:00,
2013-07-10 15:52:00,92.0,75.0,-100.00,WNW,299,3.0,8.0,57,0.00,,,0.00,510.000000,,2013-07-10 20:52:00,
2013-07-10 16:01:00,92.0,75.0,-100.00,WNW,299,3.0,8.0,57,0.00,,,0.00,510.000000,,2013-07-10 21:01:00,
2013-07-10 16:32:00,94.0,75.0,-100.00,SW,233,3.0,8.0,54,0.00,,,0.00,608.000000,,2013-07-10 21:32:00,
2013-07-10 16:42:00,94.0,75.0,-100.00,SW,233,3.0,8.0,54,0.00,,,0.00,608.000000,,2013-07-10 21:42:00,
2013-07-10 16:52:00,94.0,75.0,-100.00,SW,233,3.0,8.0,54,0.00,,,0.00,608.000000,,2013-07-10 21:52:00,
2013-07-10 17:01:00,94.0,75.0,-100.00,SW,233,3.0,8.0,54,0.00,,,0.00,608.000000,,2013-07-10 22:01:00,
2013-07-10 18:32:00,86.0,77.0,-100.00,South,172,1.0,4.0,75,-99.99,,,0.00,138.000000,,2013-07-10 23:32:00,
2013-07-10 18:43:00,86.0,77.0,-100.00,South,172,1.0,4.0,75,-99.99,,,0.00,138.000000,,2013-07-10 23:43:00,
2013-07-10 18:52:00,86.0,77.0,-100.00,South,172,1.0,4.0,75,-99.99,,,0.00,138.000000,,2013-07-10 23:52:00,
2013-07-10 19:01:00,86.0,77.0,-100.00,South,172,1.0,4.0,75,-99.99,,,0.00,138.000000,,2013-07-11 00:01:00,
2013-07-10 19:32:00,83.0,77.0,-100.00,SSE,157,0.0,3.0,81,0.00,,,0.00,56.000000,,2013-07-11 00:32:00,
2013-07-10 19:43:00,83.0,77.0,-100.00,SSE,157,0.0,3.0,81,0.00,,,0.00,56.000000,,2013-07-11 00:43:00,
2013-07-10 19:52:00,83.0,77.0,-100.00,SSE,157,0.0,3.0,81,0.00,,,0.00,56.000000,,2013-07-11 00:52:00,
2013-07-10 20:01:00,83.0,77.0,-100.00,SSE,157,0.0,3.0,81,0.00,,,0.00,56.000000,,2013-07-11 01:01:00,
2013-07-10 20:32:00,80.0,75.0,-100.00,ENE,67,1.0,6.0,84,0.00,,,0.00,10.000000,,2013-07-11 01:32:00,
2013-07-10 20:43:00,80.0,75.0,-100.00,ENE,67,1.0,6.0,84,0.00,,,0.00,10.000000,,2013-07-11 01:43:00,
2013-07-10 20:52:00,80.0,75.0,-100.00,ENE,67,1.0,6.0,84,0.00,,,0.00,10.000000,,2013-07-11 01:52:00,
2013-07-10 21:02:00,80.0,75.0,-100.00,ENE,67,1.0,6.0,84,0.00,,,0.00,10.000000,,2013-07-11 02:02:00,
2013-07-10 21:32:00,78.0,74.0,-100.00,SE,138,0.0,4.0,88,0.00,,,0.00,1.000000,,2013-07-11 02:32:00,
2013-07-10 21:44:00,78.0,74.0,-100.00,SE,138,0.0,4.0,88,0.00,,,0.00,1.000000,,2013-07-11 02:44:00,
2013-07-10 21:53:00,78.0,74.0,-100.00,SE,138,0.0,4.0,88,0.00,,,0.00,1.000000,,2013-07-11 02:53:00,
2013-07-10 22:02:00,78.0,74.0,-100.00,SE,138,0.0,4.0,88,0.00,,,0.00,1.000000,,2013-07-11 03:02:00,
2013-07-10 22:33:00,77.0,74.0,-100.00,SE,126,0.0,3.0,89,0.00,,,0.00,0.000000,,2013-07-11 03:33:00,
2013-07-10 22:42:00,77.0,74.0,-100.00,SE,126,0.0,3.0,89,0.00,,,0.00,0.000000,,2013-07-11 03:42:00,
2013-07-10 22:53:00,77.0,74.0,-100.00,SE,126,0.0,3.0,89,0.00,,,0.00,0.000000,,2013-07-11 03:53:00,
2013-07-10 23:01:00,77.0,74.0,-100.00,SE,126,0.0,3.0,89,0.00,,,0.00,0.000000,,2013-07-11 04:01:00,
2013-07-10 23:32:00,76.0,73.0,-100.00,SW,214,1.0,3.0,91,0.00,,,0.00,0.000000,,2013-07-11 04:32:00,
2013-07-10 23:43:00,76.0,73.0,-100.00,SW,214,1.0,3.0,91,0.00,,,0.00,0.000000,,2013-07-11 04:43:00,
2013-07-10 23:53:00,76.0,73.0,-100.00,SW,214,1.0,3.0,91,0.00,,,0.00,0.000000,,2013-07-11 04:53:00,